JAL902 ROAH-RJTT
Flight info
| Callsign | JAL902 |
|---|---|
| Flight time | 1h 53m |
| Altitude | 41000 |
| Route | AMAMI Y574 SHIBK Y57 SUKBO Y571 BILLY Y21 AKSEL |
| Aircraft | A359/H-SDE2E3GHIJ3J4J5LM1ORWXY/LB1D1 |
Departure
| Time | 2026-04-25 03:19 |
|---|---|
| Airport | Naha International Airport (ROAH) |
Arrival
| Time | 2026-04-25 05:12 |
|---|---|
| Airport | Tokyo Haneda International Airport (RJTT) |
| Time | Latitude | Longitude | Altitude | Speed | Heading |
|---|---|---|---|---|---|
| 2026-04-25 02:50 | 26.20433 | 127.64934 | 8 ft | 0 kts | 28° |
| 2026-04-25 02:57 | 26.20432 | 127.64934 | 28 ft | 0 kts | 28° |
| 2026-04-25 03:03 | 26.20417 | 127.64924 | 27 ft | 4 kts | 28° |
| 2026-04-25 03:03 | 26.20393 | 127.64910 | 26 ft | 4 kts | 28° |
| 2026-04-25 03:03 | 26.20375 | 127.64900 | 26 ft | 4 kts | 38° |
| 2026-04-25 03:04 | 26.20359 | 127.64881 | 25 ft | 4 kts | 69° |
| 2026-04-25 03:04 | 26.20353 | 127.64854 | 25 ft | 4 kts | 88° |
| 2026-04-25 03:04 | 26.20354 | 127.64825 | 31 ft | 4 kts | 102° |
| 2026-04-25 03:05 | 26.20377 | 127.64776 | 30 ft | 4 kts | 142° |
| 2026-04-25 03:05 | 26.20398 | 127.64761 | 30 ft | 4 kts | 161° |
| 2026-04-25 03:05 | 26.20424 | 127.64754 | 29 ft | 3 kts | 177° |
| 2026-04-25 03:05 | 26.20449 | 127.64753 | 30 ft | 4 kts | 178° |
| 2026-04-25 03:06 | 26.20461 | 127.64752 | 29 ft | 0 kts | 178° |
| 2026-04-25 03:09 | 26.20460 | 127.64752 | 29 ft | 1 kts | 177° |
| 2026-04-25 03:09 | 26.20437 | 127.64754 | 27 ft | 6 kts | 177° |
| 2026-04-25 03:10 | 26.20381 | 127.64756 | 26 ft | 9 kts | 177° |
| 2026-04-25 03:10 | 26.20315 | 127.64760 | 26 ft | 10 kts | 177° |
| 2026-04-25 03:10 | 26.20238 | 127.64764 | 26 ft | 11 kts | 178° |
| 2026-04-25 03:10 | 26.20158 | 127.64768 | 23 ft | 12 kts | 177° |
| 2026-04-25 03:11 | 26.20074 | 127.64771 | 26 ft | 12 kts | 177° |
| 2026-04-25 03:11 | 26.19985 | 127.64775 | 27 ft | 13 kts | 178° |
| 2026-04-25 03:11 | 26.19893 | 127.64780 | 26 ft | 14 kts | 178° |
| 2026-04-25 03:11 | 26.19794 | 127.64784 | 26 ft | 14 kts | 177° |
| 2026-04-25 03:12 | 26.19692 | 127.64789 | 26 ft | 15 kts | 177° |
| 2026-04-25 03:12 | 26.19590 | 127.64794 | 26 ft | 15 kts | 177° |
| 2026-04-25 03:12 | 26.19485 | 127.64799 | 26 ft | 15 kts | 178° |
| 2026-04-25 03:12 | 26.19379 | 127.64803 | 26 ft | 15 kts | 178° |
| 2026-04-25 03:13 | 26.19273 | 127.64808 | 26 ft | 15 kts | 178° |
| 2026-04-25 03:13 | 26.19167 | 127.64814 | 26 ft | 15 kts | 178° |
| 2026-04-25 03:13 | 26.19057 | 127.64819 | 27 ft | 16 kts | 178° |
| 2026-04-25 03:13 | 26.18944 | 127.64824 | 26 ft | 17 kts | 177° |
| 2026-04-25 03:14 | 26.18826 | 127.64831 | 26 ft | 17 kts | 177° |
| 2026-04-25 03:14 | 26.18704 | 127.64836 | 26 ft | 18 kts | 178° |
| 2026-04-25 03:14 | 26.18596 | 127.64841 | 27 ft | 0 kts | 178° |
| 2026-04-25 03:14 | 26.18595 | 127.64841 | 27 ft | 1 kts | 178° |
| 2026-04-25 03:15 | 26.18567 | 127.64842 | 26 ft | 8 kts | 178° |
| 2026-04-25 03:15 | 26.18481 | 127.64846 | 26 ft | 14 kts | 177° |
| 2026-04-25 03:15 | 26.18391 | 127.64851 | 25 ft | 12 kts | 178° |
| 2026-04-25 03:15 | 26.18332 | 127.64853 | 28 ft | 4 kts | 177° |
| 2026-04-25 03:16 | 26.18289 | 127.64854 | 27 ft | 8 kts | 182° |
| 2026-04-25 03:16 | 26.18246 | 127.64822 | 23 ft | 7 kts | 245° |
| 2026-04-25 03:16 | 26.18243 | 127.64765 | 23 ft | 9 kts | 267° |
| 2026-04-25 03:16 | 26.18240 | 127.64686 | 22 ft | 7 kts | 271° |
| 2026-04-25 03:17 | 26.18255 | 127.64662 | 22 ft | 3 kts | 320° |
| 2026-04-25 03:17 | 26.18277 | 127.64652 | 22 ft | 4 kts | 342° |
| 2026-04-25 03:17 | 26.18319 | 127.64648 | 27 ft | 7 kts | 357° |
| 2026-04-25 03:17 | 26.18323 | 127.64648 | 24 ft | 0 kts | 357° |
| 2026-04-25 03:18 | 26.18360 | 127.64645 | 24 ft | 23 kts | 356° |
| 2026-04-25 03:18 | 26.18858 | 127.64622 | 28 ft | 119 kts | 357° |
| 2026-04-25 03:18 | 26.19966 | 127.64572 | 226 ft | 184 kts | 358° |
| 2026-04-25 03:19 | 26.21247 | 127.64528 | 1271 ft | 178 kts | 357° |
| 2026-04-25 03:19 | 26.22512 | 127.64464 | 1900 ft | 192 kts | 357° |
| 2026-04-25 03:19 | 26.23932 | 127.64392 | 2290 ft | 214 kts | 357° |
| 2026-04-25 03:19 | 26.25446 | 127.64062 | 2651 ft | 237 kts | 338° |
| 2026-04-25 03:20 | 26.26959 | 127.63188 | 3259 ft | 250 kts | 328° |
| 2026-04-25 03:20 | 26.28480 | 127.62201 | 4062 ft | 256 kts | 328° |
| 2026-04-25 03:20 | 26.30040 | 127.61218 | 4929 ft | 259 kts | 328° |
| 2026-04-25 03:20 | 26.31632 | 127.60231 | 5732 ft | 265 kts | 328° |
| 2026-04-25 03:21 | 26.33268 | 127.59220 | 6525 ft | 272 kts | 327° |
| 2026-04-25 03:21 | 26.34937 | 127.58194 | 7346 ft | 276 kts | 327° |
| 2026-04-25 03:21 | 26.36635 | 127.57154 | 8274 ft | 279 kts | 327° |
| 2026-04-25 03:21 | 26.38329 | 127.56117 | 9199 ft | 283 kts | 326° |
| 2026-04-25 03:22 | 26.40064 | 127.55056 | 10117 ft | 286 kts | 325° |
| 2026-04-25 03:22 | 26.41886 | 127.54025 | 10638 ft | 306 kts | 331° |
| 2026-04-25 03:22 | 26.44063 | 127.53445 | 10904 ft | 341 kts | 351° |
| 2026-04-25 03:22 | 26.46518 | 127.53828 | 11204 ft | 372 kts | 13° |
| 2026-04-25 03:23 | 26.48986 | 127.54867 | 11764 ft | 384 kts | 18° |
| 2026-04-25 03:23 | 26.51486 | 127.55973 | 12422 ft | 391 kts | 17° |
| 2026-04-25 03:23 | 26.54045 | 127.57068 | 13096 ft | 396 kts | 17° |
| 2026-04-25 03:23 | 26.56645 | 127.58163 | 13790 ft | 402 kts | 17° |
| 2026-04-25 03:24 | 26.59276 | 127.59263 | 14407 ft | 406 kts | 16° |
| 2026-04-25 03:24 | 26.61939 | 127.60374 | 15040 ft | 410 kts | 16° |
| 2026-04-25 03:24 | 26.64627 | 127.61493 | 15658 ft | 414 kts | 16° |
| 2026-04-25 03:24 | 26.67336 | 127.62620 | 16276 ft | 418 kts | 16° |
| 2026-04-25 03:25 | 26.70079 | 127.63761 | 16898 ft | 422 kts | 16° |
| 2026-04-25 03:25 | 26.72850 | 127.64913 | 17518 ft | 427 kts | 16° |
| 2026-04-25 03:25 | 26.75652 | 127.66078 | 18114 ft | 431 kts | 16° |
| 2026-04-25 03:25 | 26.78478 | 127.67254 | 18649 ft | 437 kts | 16° |
| 2026-04-25 03:26 | 26.81306 | 127.68432 | 19169 ft | 441 kts | 15° |
| 2026-04-25 03:26 | 26.84241 | 127.69656 | 19677 ft | 446 kts | 15° |
| 2026-04-25 03:26 | 26.87130 | 127.70861 | 20200 ft | 450 kts | 15° |
| 2026-04-25 03:26 | 26.90081 | 127.72092 | 20710 ft | 455 kts | 15° |
| 2026-04-25 03:27 | 26.93061 | 127.73336 | 21247 ft | 459 kts | 15° |
| 2026-04-25 03:27 | 26.96074 | 127.74595 | 21734 ft | 464 kts | 15° |
| 2026-04-25 03:27 | 26.99113 | 127.75864 | 22245 ft | 468 kts | 15° |
| 2026-04-25 03:27 | 27.02189 | 127.77151 | 22759 ft | 473 kts | 15° |
| 2026-04-25 03:28 | 27.05284 | 127.78446 | 23277 ft | 477 kts | 14° |
| 2026-04-25 03:28 | 27.08413 | 127.79756 | 23745 ft | 481 kts | 14° |
| 2026-04-25 03:28 | 27.11558 | 127.81073 | 24154 ft | 486 kts | 14° |
| 2026-04-25 03:28 | 27.14745 | 127.82409 | 24583 ft | 490 kts | 14° |
| 2026-04-25 03:29 | 27.17912 | 127.83919 | 24988 ft | 501 kts | 21° |
| 2026-04-25 03:29 | 27.20834 | 127.86037 | 25424 ft | 513 kts | 35° |
| 2026-04-25 03:29 | 27.23461 | 127.88799 | 25875 ft | 521 kts | 43° |
| 2026-04-25 03:29 | 27.25987 | 127.91748 | 26303 ft | 526 kts | 43° |
| 2026-04-25 03:30 | 27.28528 | 127.94719 | 26734 ft | 530 kts | 43° |
| 2026-04-25 03:30 | 27.31104 | 127.97714 | 27170 ft | 535 kts | 43° |
| 2026-04-25 03:30 | 27.33714 | 128.00740 | 27603 ft | 539 kts | 43° |
| 2026-04-25 03:30 | 27.36332 | 128.03772 | 28029 ft | 543 kts | 43° |
| 2026-04-25 03:31 | 27.38978 | 128.06836 | 28449 ft | 548 kts | 43° |
| 2026-04-25 03:31 | 27.41645 | 128.09924 | 28850 ft | 552 kts | 43° |
| 2026-04-25 03:32 | 27.42248 | 128.10623 | 28960 ft | 553 kts | 43° |
| 2026-04-25 03:32 | 27.44693 | 128.13457 | 29342 ft | 557 kts | 43° |
| 2026-04-25 03:32 | 27.47309 | 128.16719 | 29702 ft | 563 kts | 48° |
| 2026-04-25 03:32 | 27.49755 | 128.20181 | 30102 ft | 567 kts | 50° |
| 2026-04-25 03:33 | 27.52189 | 128.23701 | 30438 ft | 572 kts | 50° |
| 2026-04-25 03:33 | 27.54637 | 128.27240 | 30729 ft | 576 kts | 50° |
| 2026-04-25 03:33 | 27.57120 | 128.30825 | 31039 ft | 579 kts | 50° |
| 2026-04-25 03:33 | 27.59605 | 128.34411 | 31336 ft | 583 kts | 51° |
| 2026-04-25 03:34 | 27.62108 | 128.38023 | 31629 ft | 586 kts | 51° |
| 2026-04-25 03:34 | 27.64623 | 128.41655 | 31926 ft | 590 kts | 51° |
| 2026-04-25 03:34 | 27.67161 | 128.45323 | 32199 ft | 593 kts | 51° |
| 2026-04-25 03:34 | 27.69707 | 128.49004 | 32468 ft | 596 kts | 51° |
| 2026-04-25 03:35 | 27.72264 | 128.52705 | 32732 ft | 599 kts | 51° |
| 2026-04-25 03:35 | 27.74833 | 128.56427 | 32988 ft | 603 kts | 51° |
| 2026-04-25 03:35 | 27.77378 | 128.60118 | 33248 ft | 605 kts | 51° |
| 2026-04-25 03:35 | 27.79969 | 128.63876 | 33611 ft | 605 kts | 51° |
| 2026-04-25 03:36 | 27.82554 | 128.67630 | 33970 ft | 606 kts | 52° |
| 2026-04-25 03:36 | 27.85139 | 128.71388 | 34280 ft | 606 kts | 52° |
| 2026-04-25 03:36 | 27.87724 | 128.75148 | 34614 ft | 606 kts | 52° |
| 2026-04-25 03:36 | 27.90310 | 128.78914 | 34961 ft | 605 kts | 52° |
| 2026-04-25 03:37 | 27.92888 | 128.82672 | 35284 ft | 604 kts | 52° |
| 2026-04-25 03:37 | 27.95463 | 128.86427 | 35619 ft | 604 kts | 52° |
| 2026-04-25 03:37 | 27.98035 | 128.90181 | 35946 ft | 603 kts | 52° |
| 2026-04-25 03:37 | 28.00607 | 128.93939 | 36274 ft | 603 kts | 52° |
| 2026-04-25 03:38 | 28.03168 | 128.97684 | 36599 ft | 602 kts | 52° |
| 2026-04-25 03:38 | 28.05729 | 129.01433 | 36907 ft | 602 kts | 52° |
| 2026-04-25 03:38 | 28.08292 | 129.05188 | 37219 ft | 601 kts | 52° |
| 2026-04-25 03:38 | 28.10846 | 129.08933 | 37521 ft | 601 kts | 52° |
| 2026-04-25 03:39 | 28.13406 | 129.12688 | 37822 ft | 600 kts | 52° |
| 2026-04-25 03:39 | 28.15953 | 129.16429 | 38117 ft | 600 kts | 52° |
| 2026-04-25 03:39 | 28.18503 | 129.20178 | 38419 ft | 600 kts | 52° |
| 2026-04-25 03:39 | 28.21047 | 129.23922 | 38717 ft | 599 kts | 52° |
| 2026-04-25 03:40 | 28.23558 | 129.27621 | 38937 ft | 599 kts | 52° |
| 2026-04-25 03:40 | 28.26100 | 129.31367 | 39198 ft | 597 kts | 52° |
| 2026-04-25 03:40 | 28.28628 | 129.35095 | 39448 ft | 596 kts | 51° |
| 2026-04-25 03:40 | 28.31155 | 129.38827 | 39684 ft | 595 kts | 51° |
| 2026-04-25 03:41 | 28.33672 | 129.42546 | 39933 ft | 594 kts | 51° |
| 2026-04-25 03:41 | 28.36188 | 129.46269 | 40157 ft | 593 kts | 51° |
| 2026-04-25 03:41 | 28.38691 | 129.49975 | 40329 ft | 592 kts | 51° |
| 2026-04-25 03:41 | 28.41180 | 129.53712 | 40500 ft | 592 kts | 53° |
| 2026-04-25 03:42 | 28.43293 | 129.57734 | 40605 ft | 592 kts | 66° |
| 2026-04-25 03:42 | 28.44662 | 129.62110 | 40728 ft | 586 kts | 81° |
| 2026-04-25 03:42 | 28.45386 | 129.66590 | 40893 ft | 581 kts | 86° |
| 2026-04-25 03:42 | 28.45938 | 129.71135 | 41026 ft | 581 kts | 88° |
| 2026-04-25 03:43 | 28.46856 | 129.80246 | 41049 ft | 579 kts | 89° |
| 2026-04-25 03:43 | 28.47756 | 129.89336 | 41043 ft | 579 kts | 88° |
| 2026-04-25 03:44 | 28.48707 | 129.98436 | 41046 ft | 580 kts | 88° |
| 2026-04-25 03:44 | 28.49682 | 130.07531 | 41046 ft | 580 kts | 88° |
| 2026-04-25 03:45 | 28.50458 | 130.12043 | 41047 ft | 586 kts | 77° |
| 2026-04-25 03:45 | 28.51905 | 130.16391 | 41046 ft | 589 kts | 64° |
| 2026-04-25 03:45 | 28.56230 | 130.24308 | 41045 ft | 590 kts | 55° |
| 2026-04-25 03:46 | 28.60931 | 130.31969 | 41046 ft | 590 kts | 54° |
| 2026-04-25 03:46 | 28.65654 | 130.39617 | 41044 ft | 591 kts | 54° |
| 2026-04-25 03:47 | 28.70306 | 130.47273 | 41039 ft | 591 kts | 54° |
| 2026-04-25 03:47 | 28.74949 | 130.54994 | 41048 ft | 591 kts | 55° |
| 2026-04-25 03:48 | 28.79587 | 130.62728 | 41042 ft | 591 kts | 54° |
| 2026-04-25 03:48 | 28.82697 | 130.67903 | 41043 ft | 591 kts | 54° |
| 2026-04-25 03:49 | 28.86420 | 130.74105 | 41047 ft | 591 kts | 54° |
| 2026-04-25 03:49 | 28.91065 | 130.81856 | 41042 ft | 591 kts | 54° |
| 2026-04-25 03:50 | 28.95672 | 130.89562 | 41040 ft | 592 kts | 54° |
| 2026-04-25 03:50 | 29.00307 | 130.97331 | 41040 ft | 592 kts | 54° |
| 2026-04-25 03:51 | 29.04938 | 131.05108 | 41044 ft | 592 kts | 55° |
| 2026-04-25 03:51 | 29.09568 | 131.12896 | 41045 ft | 592 kts | 55° |
| 2026-04-25 03:52 | 29.14199 | 131.20701 | 41035 ft | 593 kts | 55° |
| 2026-04-25 03:52 | 29.18826 | 131.28515 | 41049 ft | 593 kts | 55° |
| 2026-04-25 03:53 | 29.23450 | 131.36336 | 41035 ft | 593 kts | 55° |
| 2026-04-25 03:53 | 29.28071 | 131.44169 | 41055 ft | 593 kts | 55° |
| 2026-04-25 03:54 | 29.32661 | 131.51965 | 41037 ft | 593 kts | 55° |
| 2026-04-25 03:54 | 29.37273 | 131.59811 | 41039 ft | 593 kts | 55° |
| 2026-04-25 03:55 | 29.41099 | 131.66331 | 41041 ft | 593 kts | 55° |
| 2026-04-25 03:55 | 29.45700 | 131.74196 | 41036 ft | 593 kts | 55° |
| 2026-04-25 03:56 | 29.51045 | 131.83349 | 41035 ft | 593 kts | 55° |
| 2026-04-25 03:56 | 29.54802 | 131.89793 | 41035 ft | 593 kts | 55° |
| 2026-04-25 03:57 | 29.60134 | 131.98960 | 41035 ft | 593 kts | 55° |
| 2026-04-25 03:57 | 29.63940 | 132.05516 | 41037 ft | 592 kts | 55° |
| 2026-04-25 03:58 | 29.68941 | 132.13025 | 41030 ft | 591 kts | 49° |
| 2026-04-25 03:58 | 29.74148 | 132.20356 | 41034 ft | 591 kts | 48° |
| 2026-04-25 03:59 | 29.79382 | 132.27666 | 41036 ft | 591 kts | 48° |
| 2026-04-25 03:59 | 29.84602 | 132.34989 | 41035 ft | 591 kts | 48° |
| 2026-04-25 04:00 | 29.89811 | 132.42329 | 41035 ft | 592 kts | 49° |
| 2026-04-25 04:00 | 29.95013 | 132.49680 | 41036 ft | 592 kts | 49° |
| 2026-04-25 04:01 | 30.00220 | 132.57051 | 41034 ft | 592 kts | 49° |
| 2026-04-25 04:01 | 30.05418 | 132.64421 | 41042 ft | 592 kts | 49° |
| 2026-04-25 04:02 | 30.10613 | 132.71800 | 41037 ft | 593 kts | 49° |
| 2026-04-25 04:02 | 30.15783 | 132.79157 | 41039 ft | 594 kts | 49° |
| 2026-04-25 04:03 | 30.20989 | 132.86577 | 41040 ft | 595 kts | 49° |
| 2026-04-25 04:03 | 30.26203 | 132.94023 | 41037 ft | 595 kts | 49° |
| 2026-04-25 04:04 | 30.31402 | 133.01461 | 41045 ft | 594 kts | 49° |
| 2026-04-25 04:04 | 30.36597 | 133.08908 | 41049 ft | 595 kts | 49° |
| 2026-04-25 04:05 | 30.41798 | 133.16378 | 41045 ft | 595 kts | 49° |
| 2026-04-25 04:05 | 30.47000 | 133.23863 | 41048 ft | 595 kts | 48° |
| 2026-04-25 04:06 | 30.52190 | 133.31343 | 41046 ft | 596 kts | 48° |
| 2026-04-25 04:06 | 30.57345 | 133.38790 | 41050 ft | 596 kts | 48° |
| 2026-04-25 04:07 | 30.62531 | 133.46295 | 41050 ft | 596 kts | 48° |
| 2026-04-25 04:07 | 30.67713 | 133.53807 | 41052 ft | 596 kts | 48° |
| 2026-04-25 04:08 | 30.72896 | 133.61336 | 41056 ft | 596 kts | 48° |
| 2026-04-25 04:08 | 30.78079 | 133.68880 | 41052 ft | 596 kts | 48° |
| 2026-04-25 04:09 | 30.83259 | 133.76433 | 41043 ft | 597 kts | 48° |
| 2026-04-25 04:09 | 30.88434 | 133.83988 | 41068 ft | 597 kts | 48° |
| 2026-04-25 04:10 | 30.93572 | 133.91504 | 41051 ft | 597 kts | 48° |
| 2026-04-25 04:10 | 30.98747 | 133.99088 | 41051 ft | 597 kts | 48° |
| 2026-04-25 04:11 | 31.06485 | 134.10458 | 41065 ft | 597 kts | 48° |
| 2026-04-25 04:12 | 31.11645 | 134.18057 | 41064 ft | 597 kts | 48° |
| 2026-04-25 04:12 | 31.16808 | 134.25676 | 41064 ft | 598 kts | 48° |
| 2026-04-25 04:13 | 31.21970 | 134.33309 | 41070 ft | 598 kts | 48° |
| 2026-04-25 04:13 | 31.27120 | 134.40940 | 41071 ft | 598 kts | 48° |
| 2026-04-25 04:14 | 31.32235 | 134.48533 | 41076 ft | 598 kts | 48° |
| 2026-04-25 04:14 | 31.37373 | 134.56175 | 41076 ft | 598 kts | 48° |
| 2026-04-25 04:15 | 31.42513 | 134.63835 | 41076 ft | 597 kts | 48° |
| 2026-04-25 04:15 | 31.47643 | 134.71496 | 41082 ft | 597 kts | 48° |
| 2026-04-25 04:16 | 31.52765 | 134.79159 | 41082 ft | 597 kts | 48° |
| 2026-04-25 04:16 | 31.57888 | 134.86839 | 41086 ft | 597 kts | 48° |
| 2026-04-25 04:17 | 31.63004 | 134.94525 | 41091 ft | 598 kts | 48° |
| 2026-04-25 04:17 | 31.68091 | 135.02182 | 41088 ft | 598 kts | 48° |
| 2026-04-25 04:18 | 31.73218 | 135.09885 | 41089 ft | 598 kts | 47° |
| 2026-04-25 04:18 | 31.78710 | 135.17194 | 41091 ft | 595 kts | 42° |
| 2026-04-25 04:19 | 31.84374 | 135.24285 | 41100 ft | 594 kts | 42° |
| 2026-04-25 04:19 | 31.89984 | 135.31441 | 41100 ft | 595 kts | 43° |
| 2026-04-25 04:20 | 31.95532 | 135.38678 | 41100 ft | 595 kts | 43° |
| 2026-04-25 04:20 | 32.01059 | 135.45948 | 41105 ft | 595 kts | 43° |
| 2026-04-25 04:21 | 32.06538 | 135.53162 | 41107 ft | 595 kts | 43° |
| 2026-04-25 04:21 | 32.12080 | 135.60461 | 41111 ft | 595 kts | 43° |
| 2026-04-25 04:22 | 32.17598 | 135.67738 | 41112 ft | 595 kts | 43° |
| 2026-04-25 04:22 | 32.23107 | 135.75017 | 41116 ft | 595 kts | 43° |
| 2026-04-25 04:23 | 32.28616 | 135.82314 | 41119 ft | 595 kts | 43° |
| 2026-04-25 04:23 | 32.34119 | 135.89615 | 41123 ft | 595 kts | 43° |
| 2026-04-25 04:24 | 32.39628 | 135.96940 | 41125 ft | 594 kts | 43° |
| 2026-04-25 04:24 | 32.45086 | 136.04216 | 41126 ft | 594 kts | 43° |
| 2026-04-25 04:25 | 32.50574 | 136.11536 | 41130 ft | 594 kts | 43° |
| 2026-04-25 04:25 | 32.56065 | 136.18859 | 41134 ft | 594 kts | 43° |
| 2026-04-25 04:26 | 32.61552 | 136.26198 | 41128 ft | 595 kts | 43° |
| 2026-04-25 04:26 | 32.67038 | 136.33553 | 41141 ft | 595 kts | 43° |
| 2026-04-25 04:27 | 32.72513 | 136.40910 | 41147 ft | 595 kts | 43° |
| 2026-04-25 04:27 | 32.77994 | 136.48291 | 41149 ft | 595 kts | 43° |
| 2026-04-25 04:28 | 32.83466 | 136.55673 | 41150 ft | 595 kts | 43° |
| 2026-04-25 04:28 | 32.88929 | 136.63058 | 41154 ft | 595 kts | 43° |
| 2026-04-25 04:29 | 32.94388 | 136.70459 | 41156 ft | 595 kts | 43° |
| 2026-04-25 04:29 | 32.99813 | 136.77810 | 41159 ft | 595 kts | 43° |
| 2026-04-25 04:30 | 33.05276 | 136.85220 | 41165 ft | 595 kts | 43° |
| 2026-04-25 04:30 | 33.10728 | 136.92636 | 41171 ft | 595 kts | 43° |
| 2026-04-25 04:31 | 33.16192 | 137.00086 | 41175 ft | 595 kts | 43° |
| 2026-04-25 04:31 | 33.21635 | 137.07525 | 41175 ft | 595 kts | 43° |
| 2026-04-25 04:32 | 33.27072 | 137.14984 | 41179 ft | 595 kts | 43° |
| 2026-04-25 04:32 | 33.32479 | 137.22405 | 41184 ft | 595 kts | 43° |
| 2026-04-25 04:33 | 33.37916 | 137.29878 | 41180 ft | 595 kts | 43° |
| 2026-04-25 04:33 | 33.43349 | 137.37364 | 41191 ft | 595 kts | 43° |
| 2026-04-25 04:34 | 33.48772 | 137.44856 | 41044 ft | 595 kts | 43° |
| 2026-04-25 04:34 | 33.51483 | 137.48606 | 40805 ft | 596 kts | 43° |
| 2026-04-25 04:34 | 33.54196 | 137.52363 | 40563 ft | 598 kts | 43° |
| 2026-04-25 04:34 | 33.56921 | 137.56140 | 40324 ft | 599 kts | 43° |
| 2026-04-25 04:35 | 33.59634 | 137.59943 | 40084 ft | 602 kts | 45° |
| 2026-04-25 04:35 | 33.62032 | 137.64112 | 39863 ft | 610 kts | 56° |
| 2026-04-25 04:35 | 33.64193 | 137.68508 | 39625 ft | 613 kts | 57° |
| 2026-04-25 04:35 | 33.66288 | 137.72979 | 39396 ft | 615 kts | 58° |
| 2026-04-25 04:36 | 33.68343 | 137.77491 | 39162 ft | 617 kts | 59° |
| 2026-04-25 04:36 | 33.70385 | 137.82029 | 38944 ft | 618 kts | 59° |
| 2026-04-25 04:36 | 33.72431 | 137.86584 | 38680 ft | 619 kts | 59° |
| 2026-04-25 04:36 | 33.74483 | 137.91138 | 38407 ft | 620 kts | 58° |
| 2026-04-25 04:37 | 33.75152 | 137.92618 | 38324 ft | 620 kts | 58° |
| 2026-04-25 04:37 | 33.76346 | 137.95255 | 38186 ft | 620 kts | 58° |
| 2026-04-25 04:37 | 33.78411 | 137.99805 | 37914 ft | 620 kts | 58° |
| 2026-04-25 04:37 | 33.80477 | 138.04348 | 37641 ft | 620 kts | 58° |
| 2026-04-25 04:38 | 33.82545 | 138.08897 | 37383 ft | 619 kts | 58° |
| 2026-04-25 04:38 | 33.84584 | 138.13388 | 37131 ft | 619 kts | 58° |
| 2026-04-25 04:38 | 33.86609 | 138.17854 | 36873 ft | 619 kts | 58° |
| 2026-04-25 04:39 | 33.89675 | 138.24632 | 36508 ft | 619 kts | 58° |
| 2026-04-25 04:39 | 33.91731 | 138.29188 | 36255 ft | 619 kts | 58° |
| 2026-04-25 04:39 | 33.93779 | 138.33752 | 36024 ft | 619 kts | 59° |
| 2026-04-25 04:39 | 33.95810 | 138.38310 | 35576 ft | 617 kts | 59° |
| 2026-04-25 04:40 | 33.97837 | 138.42879 | 34835 ft | 618 kts | 59° |
| 2026-04-25 04:40 | 33.99860 | 138.47444 | 34040 ft | 619 kts | 59° |
| 2026-04-25 04:40 | 34.01888 | 138.52022 | 33162 ft | 620 kts | 59° |
| 2026-04-25 04:40 | 34.03926 | 138.56622 | 32281 ft | 620 kts | 60° |
| 2026-04-25 04:41 | 34.05957 | 138.61208 | 31405 ft | 620 kts | 60° |
| 2026-04-25 04:41 | 34.07986 | 138.65797 | 30525 ft | 620 kts | 61° |
| 2026-04-25 04:41 | 34.10012 | 138.70385 | 29673 ft | 618 kts | 61° |
| 2026-04-25 04:41 | 34.12016 | 138.74942 | 28968 ft | 612 kts | 61° |
| 2026-04-25 04:42 | 34.13972 | 138.79400 | 28317 ft | 605 kts | 60° |
| 2026-04-25 04:42 | 34.15926 | 138.83859 | 27674 ft | 598 kts | 60° |
| 2026-04-25 04:42 | 34.17861 | 138.88276 | 27024 ft | 592 kts | 60° |
| 2026-04-25 04:42 | 34.19772 | 138.92640 | 26391 ft | 586 kts | 60° |
| 2026-04-25 04:43 | 34.21670 | 138.96978 | 25756 ft | 580 kts | 60° |
| 2026-04-25 04:43 | 34.23544 | 139.01263 | 25168 ft | 573 kts | 60° |
| 2026-04-25 04:43 | 34.25395 | 139.05502 | 24576 ft | 566 kts | 59° |
| 2026-04-25 04:43 | 34.27220 | 139.09686 | 24005 ft | 560 kts | 59° |
| 2026-04-25 04:44 | 34.28908 | 139.13906 | 23383 ft | 553 kts | 63° |
| 2026-04-25 04:44 | 34.29933 | 139.16708 | 23005 ft | 547 kts | 64° |
| 2026-04-25 04:44 | 34.31914 | 139.22331 | 22154 ft | 537 kts | 65° |
| 2026-04-25 04:44 | 34.33327 | 139.26447 | 21406 ft | 518 kts | 66° |
| 2026-04-25 04:45 | 34.34223 | 139.29077 | 20893 ft | 500 kts | 66° |
| 2026-04-25 04:45 | 34.35958 | 139.34178 | 20041 ft | 488 kts | 66° |
| 2026-04-25 04:45 | 34.37228 | 139.37897 | 19432 ft | 478 kts | 66° |
| 2026-04-25 04:45 | 34.38085 | 139.40401 | 19028 ft | 476 kts | 67° |
| 2026-04-25 04:46 | 34.39762 | 139.45295 | 18161 ft | 472 kts | 67° |
| 2026-04-25 04:46 | 34.40998 | 139.48910 | 17526 ft | 452 kts | 67° |
| 2026-04-25 04:46 | 34.41789 | 139.51228 | 17126 ft | 447 kts | 67° |
| 2026-04-25 04:46 | 34.42972 | 139.54693 | 16545 ft | 445 kts | 67° |
| 2026-04-25 04:47 | 34.44152 | 139.58155 | 15930 ft | 441 kts | 67° |
| 2026-04-25 04:47 | 34.45316 | 139.61569 | 15381 ft | 435 kts | 66° |
| 2026-04-25 04:47 | 34.46464 | 139.64943 | 14789 ft | 431 kts | 66° |
| 2026-04-25 04:47 | 34.47594 | 139.68228 | 14239 ft | 406 kts | 65° |
| 2026-04-25 04:48 | 34.48972 | 139.71064 | 14116 ft | 381 kts | 50° |
| 2026-04-25 04:48 | 34.50850 | 139.73209 | 13895 ft | 363 kts | 32° |
| 2026-04-25 04:48 | 34.52933 | 139.74825 | 13705 ft | 349 kts | 27° |
| 2026-04-25 04:48 | 34.54976 | 139.76326 | 13522 ft | 337 kts | 27° |
| 2026-04-25 04:49 | 34.56924 | 139.77762 | 13358 ft | 326 kts | 27° |
| 2026-04-25 04:49 | 34.58826 | 139.79165 | 13220 ft | 314 kts | 27° |
| 2026-04-25 04:49 | 34.60662 | 139.80518 | 13073 ft | 304 kts | 27° |
| 2026-04-25 04:49 | 34.62440 | 139.81828 | 12880 ft | 295 kts | 27° |
| 2026-04-25 04:50 | 34.64191 | 139.83115 | 12574 ft | 292 kts | 27° |
| 2026-04-25 04:50 | 34.65920 | 139.84387 | 12279 ft | 288 kts | 27° |
| 2026-04-25 04:50 | 34.67624 | 139.85642 | 12011 ft | 285 kts | 27° |
| 2026-04-25 04:50 | 34.69308 | 139.86890 | 11941 ft | 284 kts | 27° |
| 2026-04-25 04:51 | 34.71001 | 139.88137 | 11933 ft | 285 kts | 27° |
| 2026-04-25 04:51 | 34.72694 | 139.89381 | 11927 ft | 285 kts | 27° |
| 2026-04-25 04:51 | 34.74389 | 139.90631 | 11930 ft | 285 kts | 27° |
| 2026-04-25 04:51 | 34.76084 | 139.91882 | 11932 ft | 285 kts | 27° |
| 2026-04-25 04:52 | 34.77776 | 139.93133 | 11931 ft | 285 kts | 27° |
| 2026-04-25 04:52 | 34.79460 | 139.94394 | 11931 ft | 285 kts | 29° |
| 2026-04-25 04:52 | 34.80932 | 139.96031 | 11914 ft | 292 kts | 52° |
| 2026-04-25 04:52 | 34.81668 | 139.98333 | 11939 ft | 294 kts | 79° |
| 2026-04-25 04:53 | 34.81932 | 140.00800 | 11941 ft | 295 kts | 83° |
| 2026-04-25 04:53 | 34.82158 | 140.03284 | 11937 ft | 296 kts | 82° |
| 2026-04-25 04:53 | 34.82406 | 140.05771 | 11939 ft | 296 kts | 82° |
| 2026-04-25 04:53 | 34.82667 | 140.08258 | 11939 ft | 296 kts | 82° |
| 2026-04-25 04:54 | 34.82996 | 140.10698 | 11924 ft | 296 kts | 74° |
| 2026-04-25 04:54 | 34.83814 | 140.13017 | 11937 ft | 293 kts | 59° |
| 2026-04-25 04:54 | 34.84825 | 140.15173 | 11941 ft | 293 kts | 57° |
| 2026-04-25 04:54 | 34.85844 | 140.17324 | 11944 ft | 293 kts | 57° |
| 2026-04-25 04:55 | 34.86840 | 140.19454 | 11944 ft | 293 kts | 58° |
| 2026-04-25 04:55 | 34.87843 | 140.21616 | 11944 ft | 293 kts | 58° |
| 2026-04-25 04:55 | 34.88873 | 140.23760 | 11943 ft | 292 kts | 53° |
| 2026-04-25 04:55 | 34.90261 | 140.25526 | 11952 ft | 287 kts | 34° |
| 2026-04-25 04:56 | 34.91868 | 140.26953 | 11953 ft | 286 kts | 31° |
| 2026-04-25 04:56 | 34.93496 | 140.28354 | 11953 ft | 286 kts | 31° |
| 2026-04-25 04:56 | 34.95109 | 140.29762 | 11956 ft | 286 kts | 32° |
| 2026-04-25 04:56 | 34.96722 | 140.31184 | 11960 ft | 286 kts | 32° |
| 2026-04-25 04:57 | 34.98330 | 140.32608 | 11962 ft | 286 kts | 32° |
| 2026-04-25 04:57 | 35.00028 | 140.33834 | 11950 ft | 282 kts | 17° |
| 2026-04-25 04:57 | 35.01913 | 140.34118 | 11953 ft | 270 kts | 348° |
| 2026-04-25 04:57 | 35.03620 | 140.33318 | 11956 ft | 261 kts | 322° |
| 2026-04-25 04:58 | 35.04844 | 140.31734 | 11755 ft | 256 kts | 298° |
| 2026-04-25 04:58 | 35.05364 | 140.29692 | 11523 ft | 254 kts | 275° |
| 2026-04-25 04:58 | 35.05416 | 140.27545 | 11282 ft | 254 kts | 274° |
| 2026-04-25 04:58 | 35.05816 | 140.25443 | 11068 ft | 255 kts | 289° |
| 2026-04-25 04:59 | 35.06467 | 140.23436 | 10840 ft | 254 kts | 292° |
| 2026-04-25 04:59 | 35.07142 | 140.21450 | 10610 ft | 253 kts | 292° |
| 2026-04-25 04:59 | 35.07811 | 140.19468 | 10393 ft | 252 kts | 292° |
| 2026-04-25 04:59 | 35.08477 | 140.17489 | 10168 ft | 252 kts | 292° |
| 2026-04-25 05:00 | 35.09142 | 140.15510 | 9917 ft | 251 kts | 292° |
| 2026-04-25 05:00 | 35.09803 | 140.13539 | 9698 ft | 251 kts | 292° |
| 2026-04-25 05:00 | 35.10463 | 140.11567 | 9478 ft | 251 kts | 293° |
| 2026-04-25 05:00 | 35.11125 | 140.09592 | 9258 ft | 251 kts | 293° |
| 2026-04-25 05:01 | 35.11778 | 140.07638 | 9088 ft | 246 kts | 293° |
| 2026-04-25 05:01 | 35.12412 | 140.05741 | 9003 ft | 236 kts | 293° |
| 2026-04-25 05:01 | 35.13004 | 140.03959 | 8959 ft | 227 kts | 293° |
| 2026-04-25 05:01 | 35.13588 | 140.02198 | 8873 ft | 218 kts | 294° |
| 2026-04-25 05:02 | 35.14185 | 140.00537 | 8778 ft | 209 kts | 299° |
| 2026-04-25 05:02 | 35.15037 | 139.99141 | 8560 ft | 203 kts | 318° |
| 2026-04-25 05:02 | 35.16227 | 139.98251 | 8282 ft | 201 kts | 340° |
| 2026-04-25 05:02 | 35.17595 | 139.97965 | 8014 ft | 200 kts | 358° |
| 2026-04-25 05:03 | 35.18976 | 139.98013 | 7790 ft | 198 kts | 2° |
| 2026-04-25 05:03 | 35.20348 | 139.98093 | 7586 ft | 197 kts | 2° |
| 2026-04-25 05:03 | 35.21710 | 139.98161 | 7388 ft | 195 kts | 2° |
| 2026-04-25 05:03 | 35.23063 | 139.98219 | 7256 ft | 194 kts | 2° |
| 2026-04-25 05:04 | 35.24410 | 139.98272 | 7110 ft | 193 kts | 2° |
| 2026-04-25 05:04 | 35.25752 | 139.98324 | 6999 ft | 192 kts | 2° |
| 2026-04-25 05:04 | 35.27088 | 139.98348 | 6936 ft | 192 kts | 360° |
| 2026-04-25 05:04 | 35.28423 | 139.98262 | 6792 ft | 193 kts | 354° |
| 2026-04-25 05:05 | 35.29688 | 139.97746 | 6676 ft | 189 kts | 335° |
| 2026-04-25 05:05 | 35.30780 | 139.96966 | 6664 ft | 175 kts | 332° |
| 2026-04-25 05:05 | 35.31805 | 139.96205 | 6468 ft | 167 kts | 333° |
| 2026-04-25 05:05 | 35.32806 | 139.95480 | 5987 ft | 172 kts | 334° |
| 2026-04-25 05:06 | 35.33847 | 139.94743 | 5569 ft | 172 kts | 334° |
| 2026-04-25 05:06 | 35.34888 | 139.94005 | 5101 ft | 177 kts | 335° |
| 2026-04-25 05:06 | 35.35981 | 139.93244 | 4458 ft | 184 kts | 335° |
| 2026-04-25 05:06 | 35.37083 | 139.92481 | 4038 ft | 178 kts | 335° |
| 2026-04-25 05:07 | 35.38114 | 139.91762 | 3832 ft | 167 kts | 335° |
| 2026-04-25 05:07 | 35.39083 | 139.91075 | 3662 ft | 155 kts | 335° |
| 2026-04-25 05:07 | 35.39986 | 139.90437 | 3484 ft | 145 kts | 336° |
| 2026-04-25 05:07 | 35.40835 | 139.89838 | 3312 ft | 137 kts | 336° |
| 2026-04-25 05:08 | 35.41657 | 139.89258 | 3138 ft | 136 kts | 335° |
| 2026-04-25 05:08 | 35.42477 | 139.88674 | 2959 ft | 137 kts | 336° |
| 2026-04-25 05:08 | 35.43305 | 139.88087 | 2764 ft | 138 kts | 336° |
| 2026-04-25 05:08 | 35.44139 | 139.87496 | 2584 ft | 138 kts | 335° |
| 2026-04-25 05:09 | 35.44971 | 139.86906 | 2393 ft | 138 kts | 334° |
| 2026-04-25 05:09 | 35.45800 | 139.86316 | 2209 ft | 138 kts | 334° |
| 2026-04-25 05:09 | 35.46639 | 139.85722 | 2020 ft | 139 kts | 334° |
| 2026-04-25 05:09 | 35.47479 | 139.85125 | 1824 ft | 140 kts | 334° |
| 2026-04-25 05:10 | 35.48319 | 139.84527 | 1623 ft | 139 kts | 334° |
| 2026-04-25 05:10 | 35.49145 | 139.83942 | 1446 ft | 139 kts | 334° |
| 2026-04-25 05:10 | 35.49990 | 139.83340 | 1240 ft | 139 kts | 334° |
| 2026-04-25 05:10 | 35.50824 | 139.82748 | 966 ft | 137 kts | 333° |
| 2026-04-25 05:11 | 35.51637 | 139.82171 | 732 ft | 136 kts | 332° |
| 2026-04-25 05:11 | 35.52460 | 139.81585 | 500 ft | 138 kts | 334° |
| 2026-04-25 05:11 | 35.53280 | 139.80984 | 293 ft | 136 kts | 333° |
| 2026-04-25 05:12 | 35.54877 | 139.79891 | 35 ft | 107 kts | 329° |
| 2026-04-25 05:12 | 35.55358 | 139.79533 | 34 ft | 55 kts | 328° |
| 2026-04-25 05:12 | 35.55569 | 139.79378 | 33 ft | 30 kts | 330° |
| 2026-04-25 05:12 | 35.55734 | 139.79220 | 32 ft | 31 kts | 308° |
| 2026-04-25 05:13 | 35.55834 | 139.79011 | 30 ft | 8 kts | 300° |
| 2026-04-25 05:13 | 35.55836 | 139.79008 | 30 ft | 0 kts | 300° |
| 2026-04-25 05:13 | 35.55839 | 139.79001 | 30 ft | 2 kts | 300° |
| 2026-04-25 05:13 | 35.55853 | 139.78973 | 30 ft | 6 kts | 300° |
| 2026-04-25 05:14 | 35.55883 | 139.78911 | 30 ft | 10 kts | 305° |
| 2026-04-25 05:14 | 35.55944 | 139.78857 | 30 ft | 12 kts | 331° |
| 2026-04-25 05:14 | 35.56025 | 139.78801 | 31 ft | 15 kts | 330° |
| 2026-04-25 05:15 | 35.56239 | 139.78648 | 31 ft | 20 kts | 330° |
| 2026-04-25 05:15 | 35.56329 | 139.78585 | 31 ft | 7 kts | 330° |
| 2026-04-25 05:15 | 35.56377 | 139.78550 | 31 ft | 9 kts | 327° |
| 2026-04-25 05:15 | 35.56389 | 139.78491 | 32 ft | 7 kts | 251° |
| 2026-04-25 05:16 | 35.56360 | 139.78422 | 31 ft | 11 kts | 240° |
| 2026-04-25 05:16 | 35.56314 | 139.78329 | 31 ft | 15 kts | 240° |
| 2026-04-25 05:16 | 35.56257 | 139.78207 | 31 ft | 18 kts | 240° |
| 2026-04-25 05:16 | 35.56189 | 139.78064 | 31 ft | 21 kts | 240° |
| 2026-04-25 05:17 | 35.56123 | 139.77924 | 31 ft | 4 kts | 240° |
| 2026-04-25 05:17 | 35.56103 | 139.77883 | 31 ft | 8 kts | 240° |
| 2026-04-25 05:17 | 35.56070 | 139.77812 | 31 ft | 12 kts | 239° |
| 2026-04-25 05:17 | 35.56021 | 139.77709 | 30 ft | 16 kts | 240° |
| 2026-04-25 05:18 | 35.55961 | 139.77582 | 29 ft | 18 kts | 240° |
| 2026-04-25 05:18 | 35.55943 | 139.77544 | 29 ft | 4 kts | 240° |
| 2026-04-25 05:18 | 35.55915 | 139.77486 | 28 ft | 9 kts | 239° |
| 2026-04-25 05:18 | 35.55883 | 139.77421 | 29 ft | 8 kts | 233° |
| 2026-04-25 05:19 | 35.55836 | 139.77408 | 29 ft | 7 kts | 159° |
| 2026-04-25 05:19 | 35.55778 | 139.77445 | 28 ft | 11 kts | 149° |
| 2026-04-25 05:19 | 35.55702 | 139.77500 | 28 ft | 14 kts | 150° |
| 2026-04-25 05:19 | 35.55607 | 139.77567 | 28 ft | 17 kts | 150° |
| 2026-04-25 05:20 | 35.55537 | 139.77617 | 28 ft | 19 kts | 150° |
| 2026-04-25 05:20 | 35.55487 | 139.77652 | 28 ft | 0 kts | 150° |
| 2026-04-25 05:21 | 35.55470 | 139.77664 | 28 ft | 8 kts | 150° |
| 2026-04-25 05:22 | 35.55410 | 139.77707 | 28 ft | 12 kts | 149° |
| 2026-04-25 05:22 | 35.55329 | 139.77765 | 28 ft | 15 kts | 149° |
| 2026-04-25 05:22 | 35.55231 | 139.77835 | 29 ft | 17 kts | 150° |
| 2026-04-25 05:22 | 35.55122 | 139.77911 | 29 ft | 19 kts | 150° |
| 2026-04-25 05:23 | 35.55059 | 139.77957 | 29 ft | 8 kts | 150° |
| 2026-04-25 05:23 | 35.55001 | 139.77997 | 29 ft | 11 kts | 150° |
| 2026-04-25 05:23 | 35.54921 | 139.78054 | 29 ft | 15 kts | 150° |
| 2026-04-25 05:23 | 35.54823 | 139.78124 | 29 ft | 17 kts | 150° |
| 2026-04-25 05:24 | 35.54742 | 139.78182 | 30 ft | 10 kts | 150° |
| 2026-04-25 05:24 | 35.54695 | 139.78215 | 30 ft | 8 kts | 150° |
| 2026-04-25 05:24 | 35.54633 | 139.78259 | 30 ft | 12 kts | 150° |
| 2026-04-25 05:24 | 35.54565 | 139.78307 | 30 ft | 5 kts | 150° |
| 2026-04-25 05:25 | 35.54532 | 139.78330 | 30 ft | 4 kts | 150° |
| 2026-04-25 05:25 | 35.54518 | 139.78357 | 30 ft | 4 kts | 106° |
| 2026-04-25 05:25 | 35.54522 | 139.78405 | 29 ft | 8 kts | 78° |
| 2026-04-25 05:25 | 35.54529 | 139.78446 | 29 ft | 4 kts | 78° |
| 2026-04-25 05:26 | 35.54531 | 139.78455 | 29 ft | 0 kts | 78° |
| 2026-04-25 05:44 | 35.54531 | 139.78454 | 29 ft | 0 kts | 78° |